Time;durP1;ratioP1;P1;durP2;ratioP2;P2;SDS_P1;SDS_P2;PMS_P1;PMS_P2;Temp;Humidity;BMP_temperature;BMP_pressure;BME280_temperature;BME280_humidity;BME280_pressure;Samples;Min_cycle;Max_cycle;Signal;HPM_P1;HPM_P2
2021/12/24 00:01:15;;;;;;;55.97;22.23;;;;;;;;;;5146246;27;20368;-55
2021/12/24 00:03:41;;;;;;;59.10;22.70;;;;;;;;;;5146512;27;20039;-55
2021/12/24 00:06:09;;;;;;;50.88;23.20;;;;;;;;;;5145402;27;20126;-56
2021/12/24 00:08:35;;;;;;;58.15;22.00;;;;;;;;;;5146101;27;20043;-55
2021/12/24 00:11:02;;;;;;;62.35;22.73;;;;;;;;;;5145907;27;20066;-57
2021/12/24 00:13:30;;;;;;;58.55;24.17;;;;;;;;;;5146177;27;20043;-55
2021/12/24 00:16:06;;;;;;;48.22;20.23;;;;;;;;;;5145734;27;20573;-56
2021/12/24 00:18:41;;;;;;;58.88;24.27;;;;;;;;;;5145896;27;20054;-57
2021/12/24 00:22:21;;;;;;;51.92;20.60;;;;;;;;;;5144966;27;20047;-57
2021/12/24 00:35:28;;;;;;;53.08;19.92;;;;;;;;;;5061383;28;20068;-56
2021/12/24 00:37:54;;;;;;;49.30;20.85;;;;;;;;;;5061950;28;20514;-58
2021/12/24 00:40:21;;;;;;;58.67;20.42;;;;;;;;;;5061621;28;20104;-55
2021/12/24 00:42:48;;;;;;;50.42;18.25;;;;;;;;;;5062121;28;20067;-55
2021/12/24 00:45:15;;;;;;;43.85;18.27;;;;;;;;;;5061531;28;20045;-57
2021/12/24 00:47:42;;;;;;;48.92;18.30;;;;;;;;;;5061824;28;20124;-54
2021/12/24 00:50:12;;;;;;;41.13;17.50;;;;;;;;;;5061117;28;20041;-55
2021/12/24 00:55:18;;;;;;;50.00;19.73;;;;;;;;;;5061396;28;20068;-55
2021/12/24 00:57:46;;;;;;;47.17;18.65;;;;;;;;;;5062163;28;20077;-56
2021/12/24 01:00:12;;;;;;;;;;;;;;;;;;5061951;28;20147;-55
2021/12/24 01:02:38;;;;;;;54.30;18.13;;;;;;;;;;5044946;28;19927;-54
2021/12/24 01:05:04;;;;;;;51.08;17.63;;;;;;;;;;5061231;28;20048;-56
2021/12/24 01:07:30;;;;;;;47.35;17.70;;;;;;;;;;5077302;28;20271;-56
2021/12/24 01:09:57;;;;;;;46.70;17.73;;;;;;;;;;5124993;28;20049;-55
2021/12/24 01:12:24;;;;;;;45.90;17.60;;;;;;;;;;5124625;28;20552;-53
2021/12/24 01:14:50;;;;;;;42.65;17.30;;;;;;;;;;5124503;28;20043;-55
2021/12/24 01:19:57;;;;;;;43.25;16.30;;;;;;;;;;5124413;28;20052;-54
2021/12/24 01:23:12;;;;;;;45.08;17.08;;;;;;;;;;5124228;28;20044;-54
2021/12/24 01:25:31;;;;;;;35.78;15.27;;;;;;;;;;5124532;28;20130;-54
2021/12/24 01:39:23;;;;;;;35.67;14.18;;;;;;;;;;5128213;28;20054;-55
2021/12/24 01:44:28;;;;;;;41.15;15.57;;;;;;;;;;5127750;28;20259;-54
2021/12/24 01:46:55;;;;;;;33.30;13.15;;;;;;;;;;5128224;28;20051;-56
2021/12/24 01:49:22;;;;;;;36.53;14.38;;;;;;;;;;5128294;28;20047;-56
2021/12/24 01:51:48;;;;;;;35.53;14.00;;;;;;;;;;5127829;28;20122;-55
2021/12/24 01:54:14;;;;;;;38.00;14.45;;;;;;;;;;5128021;28;20063;-55
2021/12/24 01:56:40;;;;;;;37.40;13.40;;;;;;;;;;5128007;28;20040;-56
2021/12/24 01:59:06;;;;;;;27.45;12.00;;;;;;;;;;5127825;28;20115;-56
2021/12/24 02:01:33;;;;;;;23.75;10.07;;;;;;;;;;5128049;28;20122;-54
2021/12/24 02:04:01;;;;;;;28.17;11.63;;;;;;;;;;5128138;28;20052;-54
2021/12/24 02:06:27;;;;;;;27.10;10.10;;;;;;;;;;5127406;28;20040;-55
2021/12/24 02:08:54;;;;;;;23.17;9.27;;;;;;;;;;5127705;28;20044;-54
2021/12/24 02:11:20;;;;;;;23.83;10.77;;;;;;;;;;5127562;28;20369;-56
2021/12/24 02:13:47;;;;;;;24.27;10.52;;;;;;;;;;5127675;28;20059;-54
2021/12/24 02:17:16;;;;;;;22.40;9.77;;;;;;;;;;5127683;28;20043;-54
2021/12/24 02:29:55;;;;;;;21.02;9.57;;;;;;;;;;5147755;27;20111;-53
2021/12/24 02:32:21;;;;;;;18.63;8.75;;;;;;;;;;5147772;27;20043;-56
2021/12/24 02:34:47;;;;;;;12.00;6.35;;;;;;;;;;5147878;27;20058;-56
2021/12/24 02:37:13;;;;;;;21.02;9.07;;;;;;;;;;5147607;27;20058;-55
2021/12/24 02:39:39;;;;;;;23.83;9.90;;;;;;;;;;5127715;27;20044;-55
2021/12/24 02:42:14;;;;;;;23.30;10.23;;;;;;;;;;5127145;28;20092;-55
2021/12/24 02:44:41;;;;;;;17.60;8.95;;;;;;;;;;5126365;28;20051;-55
2021/12/24 02:55:01;;;;;;;18.92;7.65;;;;;;;;;;5126514;28;20167;-55
2021/12/24 02:57:28;;;;;;;24.08;9.75;;;;;;;;;;5126477;28;20051;-55
2021/12/24 03:00:00;;;;;;;19.63;9.67;;;;;;;;;;5126383;28;20054;-56
2021/12/24 03:02:28;;;;;;;22.75;9.80;;;;;;;;;;5126500;28;20285;-57
2021/12/24 03:04:54;;;;;;;22.67;8.98;;;;;;;;;;5126735;28;20108;-60
2021/12/24 03:07:20;;;;;;;25.27;10.38;;;;;;;;;;5126531;28;20099;-56
2021/12/24 03:09:46;;;;;;;23.33;9.88;;;;;;;;;;5145872;27;20080;-56
2021/12/24 03:12:13;;;;;;;25.92;10.98;;;;;;;;;;5146963;27;20482;-56
2021/12/24 03:14:39;;;;;;;30.35;11.73;;;;;;;;;;5146929;27;20051;-56
2021/12/24 03:17:10;;;;;;;29.85;11.77;;;;;;;;;;5146836;27;20065;-56
2021/12/24 03:19:37;;;;;;;34.53;12.15;;;;;;;;;;5147419;27;20051;-56
2021/12/24 03:24:48;;;;;;;42.70;13.60;;;;;;;;;;5146738;27;20054;-56
2021/12/24 03:27:15;;;;;;;55.45;16.35;;;;;;;;;;5146634;27;20102;-56
2021/12/24 03:29:41;;;;;;;43.38;13.20;;;;;;;;;;5146562;27;20050;-54
2021/12/24 03:32:08;;;;;;;58.03;15.45;;;;;;;;;;5146579;27;20039;-57
2021/12/24 03:34:34;;;;;;;62.80;15.65;;;;;;;;;;5146779;27;20051;-55
2021/12/24 03:37:01;;;;;;;62.63;17.02;;;;;;;;;;5146308;27;20064;-57
2021/12/24 03:39:27;;;;;;;63.75;16.60;;;;;;;;;;5146459;27;20047;-56
2021/12/24 03:41:53;;;;;;;71.93;17.73;;;;;;;;;;5127886;27;20046;-55
2021/12/24 03:44:19;;;;;;;82.68;18.40;;;;;;;;;;5146077;27;20126;-57
2021/12/24 03:54:56;;;;;;;108.45;21.65;;;;;;;;;;5062119;28;20108;-57
2021/12/24 03:57:24;;;;;;;90.18;20.38;;;;;;;;;;5061677;28;20500;-57
2021/12/24 03:59:50;;;;;;;100.55;22.10;;;;;;;;;;5062147;28;20487;-58
2021/12/24 04:02:17;;;;;;;82.28;18.70;;;;;;;;;;5062263;28;20071;-57
2021/12/24 04:04:43;;;;;;;79.30;19.17;;;;;;;;;;5062424;28;20049;-56
2021/12/24 04:07:09;;;;;;;71.05;17.80;;;;;;;;;;5061737;28;20053;-56
2021/12/24 04:09:37;;;;;;;69.90;16.25;;;;;;;;;;5062325;28;20603;-57
2021/12/24 04:12:03;;;;;;;87.95;20.98;;;;;;;;;;5062212;28;20087;-55
2021/12/24 04:14:29;;;;;;;80.50;17.05;;;;;;;;;;5061945;28;20041;-56
2021/12/24 04:16:55;;;;;;;92.20;18.35;;;;;;;;;;5062329;28;20047;-54
2021/12/24 04:24:56;;;;;;;50.58;14.30;;;;;;;;;;5080449;28;20052;-55
2021/12/24 04:27:23;;;;;;;90.93;19.55;;;;;;;;;;5125055;28;20043;-56
2021/12/24 04:29:51;;;;;;;70.20;17.70;;;;;;;;;;5124985;28;20071;-56
2021/12/24 04:32:26;;;;;;;56.47;14.95;;;;;;;;;;5125316;28;20039;-57
2021/12/24 04:35:02;;;;;;;40.90;14.63;;;;;;;;;;5125230;28;20054;-56
2021/12/24 04:51:18;;;;;;;59.95;20.30;;;;;;;;;;5144801;28;20053;-55
2021/12/24 05:04:36;;;;;;;67.50;25.20;;;;;;;;;;5145407;28;20051;-55
2021/12/24 05:07:20;;;;;;;57.20;23.10;;;;;;;;;;5126510;28;20047;-55
2021/12/24 05:09:47;;;;;;;56.75;23.08;;;;;;;;;;5149425;27;20039;-57
2021/12/24 05:12:13;;;;;;;56.38;22.63;;;;;;;;;;5149484;27;20043;-57
2021/12/24 05:14:39;;;;;;;86.65;27.73;;;;;;;;;;5149361;27;20043;-56
2021/12/24 05:22:35;;;;;;;51.42;22.50;;;;;;;;;;5149266;27;20082;-56
2021/12/24 05:25:01;;;;;;;56.40;23.42;;;;;;;;;;5149289;27;20043;-56
2021/12/24 05:27:28;;;;;;;43.25;19.60;;;;;;;;;;5149080;27;20095;-56
2021/12/24 05:29:55;;;;;;;58.67;22.98;;;;;;;;;;5148972;27;20156;-57
2021/12/24 05:32:21;;;;;;;61.30;23.70;;;;;;;;;;5149421;27;20049;-56
2021/12/24 05:34:47;;;;;;;52.45;21.58;;;;;;;;;;5148950;27;20043;-56
2021/12/24 05:37:14;;;;;;;59.97;25.50;;;;;;;;;;5129932;27;20051;-57
2021/12/24 05:39:40;;;;;;;48.47;20.73;;;;;;;;;;5148843;27;20498;-56
2021/12/24 05:42:06;;;;;;;71.25;28.02;;;;;;;;;;5148805;27;20047;-56
2021/12/24 05:44:33;;;;;;;64.03;24.70;;;;;;;;;;5148684;27;20051;-54
2021/12/24 05:47:00;;;;;;;60.17;24.65;;;;;;;;;;5148669;27;20094;-56
2021/12/24 05:49:26;;;;;;;72.13;29.00;;;;;;;;;;5148776;27;20047;-56
2021/12/24 05:51:52;;;;;;;51.00;22.52;;;;;;;;;;5147852;27;20047;-56
2021/12/24 05:54:18;;;;;;;62.47;23.92;;;;;;;;;;5148543;27;20498;-58
2021/12/24 05:56:45;;;;;;;61.83;25.50;;;;;;;;;;5148727;27;20062;-57
2021/12/24 05:59:12;;;;;;;49.72;21.92;;;;;;;;;;5129760;27;20505;-57
2021/12/24 06:01:38;;;;;;;54.80;23.42;;;;;;;;;;5148402;27;20049;-56
2021/12/24 06:04:04;;;;;;;68.57;23.00;;;;;;;;;;5148446;27;20082;-56
2021/12/24 06:06:30;;;;;;;50.78;17.73;;;;;;;;;;5147646;27;20065;-56
2021/12/24 06:08:56;;;;;;;41.40;17.48;;;;;;;;;;5148740;27;20092;-56
2021/12/24 06:11:23;;;;;;;54.70;18.25;;;;;;;;;;5148191;27;20039;-57
2021/12/24 06:13:53;;;;;;;45.17;15.73;;;;;;;;;;5148259;27;20035;-57
2021/12/24 06:16:20;;;;;;;53.88;17.17;;;;;;;;;;5147886;27;20118;-57
2021/12/24 06:18:46;;;;;;;40.05;14.75;;;;;;;;;;5148286;27;20048;-57
2021/12/24 06:21:12;;;;;;;49.38;17.27;;;;;;;;;;5146824;27;20043;-56
2021/12/24 06:23:39;;;;;;;40.78;15.88;;;;;;;;;;5130073;27;20057;-56
2021/12/24 06:26:06;;;;;;;28.00;10.82;;;;;;;;;;5148029;27;20047;-56
2021/12/24 06:28:32;;;;;;;46.23;16.17;;;;;;;;;;5148033;27;20068;-56
2021/12/24 06:30:59;;;;;;;54.45;16.20;;;;;;;;;;5147736;27;20127;-57
2021/12/24 06:33:25;;;;;;;44.65;14.30;;;;;;;;;;5148025;27;20051;-57
2021/12/24 06:35:56;;;;;;;47.60;15.20;;;;;;;;;;5147612;27;20059;-56
2021/12/24 06:38:23;;;;;;;53.30;14.57;;;;;;;;;;5147831;27;20127;-56
2021/12/24 06:40:49;;;;;;;39.22;13.02;;;;;;;;;;5147615;27;20114;-57
2021/12/24 06:43:15;;;;;;;27.25;10.52;;;;;;;;;;5147594;27;20047;-57
2021/12/24 06:45:41;;;;;;;57.60;14.63;;;;;;;;;;5147427;27;20107;-57
2021/12/24 06:48:08;;;;;;;41.55;14.10;;;;;;;;;;5148009;27;20047;-57
2021/12/24 06:50:34;;;;;;;45.05;13.80;;;;;;;;;;5146900;27;20051;-57
2021/12/24 06:53:00;;;;;;;37.25;12.48;;;;;;;;;;5147682;27;20043;-56
2021/12/24 06:55:27;;;;;;;33.63;12.15;;;;;;;;;;5146912;27;20099;-55
2021/12/24 06:57:53;;;;;;;35.75;11.70;;;;;;;;;;5147400;27;20102;-56
2021/12/24 07:00:20;;;;;;;41.67;11.27;;;;;;;;;;5147390;27;20051;-56
2021/12/24 07:02:47;;;;;;;48.60;14.18;;;;;;;;;;5147360;27;20091;-56
2021/12/24 07:05:13;;;;;;;44.30;13.25;;;;;;;;;;5146718;27;20103;-56
2021/12/24 07:07:39;;;;;;;35.03;14.20;;;;;;;;;;5147412;27;20540;-56
2021/12/24 07:10:06;;;;;;;47.28;14.55;;;;;;;;;;5147154;27;20047;-56
2021/12/24 07:12:32;;;;;;;34.15;10.48;;;;;;;;;;5128938;27;20043;-56
2021/12/24 07:14:59;;;;;;;37.70;12.85;;;;;;;;;;5147211;27;20100;-57
2021/12/24 07:17:25;;;;;;;41.00;14.35;;;;;;;;;;5128640;27;20475;-57
2021/12/24 07:19:51;;;;;;;50.30;15.88;;;;;;;;;;5146827;27;20043;-56
2021/12/24 07:22:18;;;;;;;55.85;15.13;;;;;;;;;;5146509;27;20039;-57
2021/12/24 07:24:44;;;;;;;43.50;14.15;;;;;;;;;;5146737;27;20055;-57
2021/12/24 07:27:11;;;;;;;56.28;14.55;;;;;;;;;;5147283;27;20100;-56
2021/12/24 07:29:37;;;;;;;32.38;12.88;;;;;;;;;;5146561;27;20122;-57
2021/12/24 07:32:04;;;;;;;37.33;11.80;;;;;;;;;;5146591;27;20108;-56
2021/12/24 07:34:30;;;;;;;42.92;11.73;;;;;;;;;;5146907;27;20043;-57
2021/12/24 07:36:56;;;;;;;31.95;10.13;;;;;;;;;;5146302;27;20123;-57
2021/12/24 07:39:22;;;;;;;29.52;9.73;;;;;;;;;;5146961;27;20051;-57
2021/12/24 07:41:49;;;;;;;19.13;7.53;;;;;;;;;;5146408;27;20050;-57
2021/12/24 07:44:17;;;;;;;28.70;9.65;;;;;;;;;;5146233;27;20494;-57
2021/12/24 07:46:51;;;;;;;26.90;10.23;;;;;;;;;;5146465;27;20047;-58
2021/12/24 07:49:29;;;;;;;29.83;10.05;;;;;;;;;;5146525;27;20103;-57
2021/12/24 07:54:25;;;;;;;32.28;11.52;;;;;;;;;;5146321;27;20047;-58
2021/12/24 07:56:51;;;;;;;36.53;14.00;;;;;;;;;;5145996;27;20055;-57
2021/12/24 07:59:17;;;;;;;36.08;13.95;;;;;;;;;;5145934;27;20047;-57
2021/12/24 08:01:44;;;;;;;33.75;13.75;;;;;;;;;;5146308;27;20039;-57
2021/12/24 08:04:11;;;;;;;28.63;9.40;;;;;;;;;;5146404;27;20050;-57
2021/12/24 08:06:38;;;;;;;47.38;14.30;;;;;;;;;;5145593;27;20031;-56
2021/12/24 08:09:06;;;;;;;37.65;12.25;;;;;;;;;;5145763;27;20082;-57
2021/12/24 08:11:33;;;;;;;27.75;11.32;;;;;;;;;;5145864;27;20043;-58
2021/12/24 08:14:01;;;;;;;31.50;11.88;;;;;;;;;;5145971;27;20047;-56
2021/12/24 08:16:27;;;;;;;;;;;;;;;;;;5145882;27;20121;-59
2021/12/24 08:18:53;;;;;;;27.15;10.93;;;;;;;;;;5146048;27;20088;-57
2021/12/24 08:21:19;;;;;;;30.38;11.07;;;;;;;;;;5145121;27;20100;-57
2021/12/24 08:23:47;;;;;;;24.83;11.07;;;;;;;;;;5145609;27;20104;-58
2021/12/24 08:26:13;;;;;;;28.38;12.48;;;;;;;;;;5145860;27;20054;-56
2021/12/24 08:28:39;;;;;;;24.92;10.48;;;;;;;;;;5145932;27;20043;-57
2021/12/24 08:31:06;;;;;;;30.85;11.68;;;;;;;;;;5145381;27;20103;-57
2021/12/24 08:33:34;;;;;;;30.02;11.70;;;;;;;;;;5146027;27;20043;-56
2021/12/24 08:36:00;;;;;;;33.72;14.57;;;;;;;;;;5144915;27;20038;-57
2021/12/24 08:38:26;;;;;;;28.40;12.00;;;;;;;;;;5145675;27;20051;-56
2021/12/24 08:40:52;;;;;;;36.38;13.30;;;;;;;;;;5145568;27;20069;-57
2021/12/24 08:43:18;;;;;;;32.47;12.95;;;;;;;;;;5145105;27;20130;-57
2021/12/24 08:45:45;;;;;;;35.17;12.52;;;;;;;;;;5145503;27;20050;-56
2021/12/24 08:48:11;;;;;;;25.38;11.57;;;;;;;;;;5145669;27;20098;-57
2021/12/24 08:50:37;;;;;;;32.85;12.85;;;;;;;;;;5144763;28;20057;-57
2021/12/24 08:53:03;;;;;;;30.10;11.65;;;;;;;;;;5145537;28;20103;-57
2021/12/24 08:55:30;;;;;;;34.85;12.52;;;;;;;;;;5126920;28;20082;-57
2021/12/24 08:57:56;;;;;;;37.00;14.48;;;;;;;;;;5145602;28;20047;-56
2021/12/24 09:00:23;;;;;;;39.17;13.82;;;;;;;;;;5145090;28;20537;-56
2021/12/24 09:02:50;;;;;;;29.08;13.60;;;;;;;;;;5145439;28;20044;-56
2021/12/24 09:05:16;;;;;;;37.10;12.40;;;;;;;;;;5144703;28;20039;-56
2021/12/24 09:07:42;;;;;;;31.67;12.73;;;;;;;;;;5145642;28;20391;-57
2021/12/24 09:10:09;;;;;;;49.50;14.75;;;;;;;;;;5145358;28;20050;-58
2021/12/24 09:12:36;;;;;;;32.37;14.33;;;;;;;;;;5145699;28;20070;-57
2021/12/24 09:15:03;;;;;;;44.58;15.32;;;;;;;;;;5144993;28;20039;-57
2021/12/24 09:17:30;;;;;;;41.20;15.13;;;;;;;;;;5145386;28;20043;-57
2021/12/24 09:19:56;;;;;;;46.95;15.70;;;;;;;;;;5145236;28;20054;-58
2021/12/24 09:22:29;;;;;;;13.30;6.38;;;;;;;;;;5144699;28;20478;-57
2021/12/24 09:24:56;;;;;;;8.27;5.70;;;;;;;;;;5145003;28;20042;-56
2021/12/24 09:27:22;;;;;;;15.45;6.20;;;;;;;;;;5145294;28;20049;-57
2021/12/24 09:29:48;;;;;;;11.35;5.93;;;;;;;;;;5144913;28;20106;-56
2021/12/24 09:32:15;;;;;;;11.95;6.38;;;;;;;;;;5145233;28;20043;-56
2021/12/24 09:34:41;;;;;;;13.40;6.20;;;;;;;;;;5145134;28;20115;-56
2021/12/24 09:37:07;;;;;;;16.50;6.70;;;;;;;;;;5145086;28;20103;-55
2021/12/24 09:39:34;;;;;;;27.88;7.68;;;;;;;;;;5145153;28;20050;-56
2021/12/24 09:42:00;;;;;;;11.70;6.03;;;;;;;;;;5145022;28;20047;-54
2021/12/24 09:44:27;;;;;;;10.45;5.55;;;;;;;;;;5144832;28;20043;-55
2021/12/24 09:46:53;;;;;;;10.35;5.88;;;;;;;;;;5145182;28;20099;-54
2021/12/24 09:49:20;;;;;;;15.65;6.88;;;;;;;;;;5145132;28;20039;-55
2021/12/24 09:51:50;;;;;;;12.75;6.72;;;;;;;;;;5144427;28;20039;-57
2021/12/24 09:54:21;;;;;;;11.23;6.25;;;;;;;;;;5144953;27;20039;-55
2021/12/24 09:56:47;;;;;;;17.75;6.95;;;;;;;;;;5148376;27;20047;-56
2021/12/24 09:59:14;;;;;;;13.25;6.22;;;;;;;;;;5148562;27;20051;-56
2021/12/24 10:01:43;;;;;;;13.07;6.75;;;;;;;;;;5148380;27;20066;-54
2021/12/24 10:04:13;;;;;;;13.23;6.70;;;;;;;;;;5148889;27;20118;-54
2021/12/24 10:06:40;;;;;;;15.63;7.88;;;;;;;;;;5148000;27;20039;-55
2021/12/24 10:09:11;;;;;;;13.65;6.28;;;;;;;;;;5148525;27;20074;-55
2021/12/24 10:11:49;;;;;;;11.15;7.25;;;;;;;;;;5148218;27;20051;-55
2021/12/24 10:14:16;;;;;;;13.35;6.88;;;;;;;;;;5148373;27;20055;-55
2021/12/24 10:16:43;;;;;;;12.95;6.90;;;;;;;;;;5148049;27;20078;-56
2021/12/24 10:19:10;;;;;;;10.82;5.80;;;;;;;;;;5148666;27;20039;-55
2021/12/24 10:21:36;;;;;;;13.15;11.60;;;;;;;;;;5147564;27;20504;-56
2021/12/24 10:24:04;;;;;;;8.45;5.00;;;;;;;;;;5148017;27;20039;-56
2021/12/24 10:26:31;;;;;;;14.80;7.30;;;;;;;;;;5148109;27;20039;-55
2021/12/24 10:29:05;;;;;;;9.73;5.55;;;;;;;;;;5148133;27;20070;-55
2021/12/24 10:31:33;;;;;;;8.45;4.60;;;;;;;;;;5147865;27;20501;-55
2021/12/24 10:34:14;;;;;;;7.28;4.30;;;;;;;;;;5147943;27;20054;-55
2021/12/24 10:36:56;;;;;;;6.78;4.28;;;;;;;;;;5147403;27;20053;-54
2021/12/24 10:39:27;;;;;;;7.32;4.93;;;;;;;;;;5147865;27;20050;-54
2021/12/24 10:41:54;;;;;;;9.95;5.30;;;;;;;;;;5147933;27;20039;-57
2021/12/24 10:44:22;;;;;;;10.75;6.25;;;;;;;;;;5147685;27;20047;-57
2021/12/24 10:47:18;;;;;;;16.40;6.28;;;;;;;;;;5147086;27;20035;-54
2021/12/24 10:55:45;;;;;;;17.35;6.60;;;;;;;;;;5147158;27;20063;-55
2021/12/24 10:58:16;;;;;;;12.57;6.20;;;;;;;;;;5147414;27;20043;-57
2021/12/24 11:00:46;;;;;;;13.60;7.10;;;;;;;;;;5146643;27;20406;-57
2021/12/24 11:03:21;;;;;;;11.50;6.78;;;;;;;;;;5147319;27;20039;-56
2021/12/24 11:05:49;;;;;;;12.57;6.00;;;;;;;;;;5146192;27;20047;-56
2021/12/24 11:08:16;;;;;;;11.25;5.32;;;;;;;;;;5147217;27;20043;-55
2021/12/24 11:10:47;;;;;;;9.73;5.28;;;;;;;;;;5146757;27;20711;-58
2021/12/24 11:13:16;;;;;;;11.55;5.90;;;;;;;;;;5147030;27;20044;-57
2021/12/24 11:15:52;;;;;;;9.55;5.25;;;;;;;;;;5146402;27;20047;-56
2021/12/24 11:18:18;;;;;;;9.50;5.65;;;;;;;;;;5147055;27;20082;-56
2021/12/24 11:20:45;;;;;;;11.68;6.20;;;;;;;;;;5146073;27;20043;-56
2021/12/24 11:23:11;;;;;;;9.45;5.28;;;;;;;;;;5146877;27;20069;-55
2021/12/24 11:25:47;;;;;;;11.13;5.93;;;;;;;;;;5146369;27;20069;-54
2021/12/24 11:28:14;;;;;;;7.95;5.43;;;;;;;;;;5147229;27;20043;-56
2021/12/24 11:30:46;;;;;;;12.57;7.13;;;;;;;;;;5146769;27;20043;-56
2021/12/24 11:33:16;;;;;;;11.18;6.25;;;;;;;;;;5146960;27;20039;-55
2021/12/24 11:35:42;;;;;;;12.57;5.93;;;;;;;;;;5146321;27;20039;-56
2021/12/24 11:38:13;;;;;;;11.13;5.88;;;;;;;;;;5146690;27;20042;-56
2021/12/24 11:40:39;;;;;;;12.70;6.60;;;;;;;;;;5146669;27;20099;-54
2021/12/24 11:43:05;;;;;;;12.18;6.55;;;;;;;;;;5146940;27;20504;-55
2021/12/24 11:45:33;;;;;;;12.88;7.13;;;;;;;;;;5146401;27;20050;-57
2021/12/24 11:47:59;;;;;;;14.77;7.35;;;;;;;;;;5146682;27;20075;-56
2021/12/24 11:50:26;;;;;;;11.82;6.90;;;;;;;;;;5145596;27;20051;-57
2021/12/24 11:52:54;;;;;;;11.90;6.35;;;;;;;;;;5146330;27;20118;-57
2021/12/24 11:55:21;;;;;;;12.88;6.82;;;;;;;;;;5146408;27;20116;-57
2021/12/24 11:57:51;;;;;;;22.17;7.22;;;;;;;;;;5146314;27;20135;-57
2021/12/24 12:00:21;;;;;;;17.35;7.60;;;;;;;;;;5146071;27;20043;-57
2021/12/24 12:02:50;;;;;;;15.60;7.63;;;;;;;;;;5146234;27;20126;-56
2021/12/24 12:05:16;;;;;;;11.77;6.82;;;;;;;;;;5145379;27;20039;-55
2021/12/24 12:07:42;;;;;;;13.07;7.68;;;;;;;;;;5146403;27;20063;-55
2021/12/24 12:10:09;;;;;;;14.15;7.03;;;;;;;;;;5146313;27;20119;-55
2021/12/24 12:12:36;;;;;;;13.23;7.57;;;;;;;;;;5146137;27;20043;-56
2021/12/24 12:15:21;;;;;;;11.95;6.10;;;;;;;;;;5145806;27;20042;-56
2021/12/24 12:17:51;;;;;;;14.90;6.60;;;;;;;;;;5145201;27;20075;-56
2021/12/24 12:20:41;;;;;;;14.48;7.05;;;;;;;;;;5145320;27;20055;-57
2021/12/24 12:23:14;;;;;;;13.38;7.93;;;;;;;;;;5145966;27;20122;-55
2021/12/24 12:25:41;;;;;;;13.05;7.20;;;;;;;;;;5145862;27;20039;-56
2021/12/24 12:28:13;;;;;;;14.35;6.93;;;;;;;;;;5146378;27;20047;-55
2021/12/24 12:30:49;;;;;;;12.90;6.28;;;;;;;;;;5145564;27;20053;-56
2021/12/24 12:33:18;;;;;;;14.25;6.07;;;;;;;;;;5145968;27;20035;-56
2021/12/24 12:36:06;;;;;;;12.23;5.60;;;;;;;;;;5145141;27;20058;-55
2021/12/24 12:38:39;;;;;;;13.13;6.13;;;;;;;;;;5145672;27;20050;-55
2021/12/24 12:41:24;;;;;;;11.25;5.90;;;;;;;;;;5145767;27;20054;-56
2021/12/24 12:43:51;;;;;;;11.57;5.85;;;;;;;;;;5145690;27;20544;-57
2021/12/24 12:46:19;;;;;;;10.15;6.10;;;;;;;;;;5145516;27;20046;-55
2021/12/24 12:48:48;;;;;;;9.40;5.65;;;;;;;;;;5145604;27;20047;-57
2021/12/24 12:51:14;;;;;;;8.20;5.30;;;;;;;;;;5144910;28;20106;-56
2021/12/24 12:53:41;;;;;;;7.90;5.30;;;;;;;;;;5145740;28;20104;-57
2021/12/24 12:56:21;;;;;;;10.90;5.85;;;;;;;;;;5145106;28;20089;-57
2021/12/24 12:59:08;;;;;;;9.32;5.97;;;;;;;;;;5127166;28;20050;-56
2021/12/24 13:01:56;;;;;;;8.35;5.65;;;;;;;;;;5127021;28;20482;-57
2021/12/24 13:04:22;;;;;;;11.25;5.88;;;;;;;;;;5145690;28;20032;-57
2021/12/24 13:06:49;;;;;;;10.40;5.95;;;;;;;;;;5145090;28;20070;-57
2021/12/24 13:09:21;;;;;;;13.38;6.93;;;;;;;;;;5145390;28;20039;-57
2021/12/24 13:11:48;;;;;;;8.88;6.10;;;;;;;;;;5127017;28;20054;-56
2021/12/24 13:14:16;;;;;;;11.18;6.53;;;;;;;;;;5126835;28;20522;-57
2021/12/24 13:16:48;;;;;;;8.77;5.88;;;;;;;;;;5145133;28;20043;-55
2021/12/24 13:24:47;;;;;;;11.35;6.38;;;;;;;;;;5145091;28;20482;-55
2021/12/24 13:27:13;;;;;;;8.82;6.35;;;;;;;;;;5145214;28;20089;-57
2021/12/24 13:29:40;;;;;;;11.88;7.22;;;;;;;;;;5147180;27;20506;-57
2021/12/24 13:32:07;;;;;;;12.65;6.55;;;;;;;;;;5149309;27;20070;-57
2021/12/24 13:34:33;;;;;;;13.15;7.00;;;;;;;;;;5149791;27;20051;-57
2021/12/24 13:37:01;;;;;;;11.90;6.43;;;;;;;;;;5148612;27;20047;-56
2021/12/24 13:39:27;;;;;;;11.63;6.75;;;;;;;;;;5130681;27;20039;-57
2021/12/24 13:42:00;;;;;;;10.45;5.95;;;;;;;;;;5149179;27;20039;-57
2021/12/24 13:44:28;;;;;;;10.40;6.13;;;;;;;;;;5148542;27;20273;-57
2021/12/24 13:47:22;;;;;;;12.55;7.25;;;;;;;;;;5149053;27;20047;-57
2021/12/24 13:55:20;;;;;;;11.68;6.68;;;;;;;;;;5148524;27;20053;-57
2021/12/24 13:57:53;;;;;;;11.10;6.80;;;;;;;;;;5148702;27;20051;-57
2021/12/24 14:00:20;;;;;;;14.15;7.85;;;;;;;;;;5148456;27;20058;-57
2021/12/24 14:02:57;;;;;;;9.30;6.43;;;;;;;;;;5148666;27;20051;-57
2021/12/24 14:05:23;;;;;;;9.13;6.03;;;;;;;;;;5148030;27;20311;-58
2021/12/24 14:08:22;;;;;;;12.63;7.07;;;;;;;;;;5148734;27;20035;-57
2021/12/24 14:10:50;;;;;;;12.93;5.63;;;;;;;;;;5044790;28;20045;-57
2021/12/24 14:13:26;;;;;;;10.15;5.90;;;;;;;;;;5044618;28;20196;-57
2021/12/24 14:16:15;;;;;;;8.45;5.97;;;;;;;;;;5044395;28;20107;-56
2021/12/24 14:18:45;;;;;;;10.35;5.63;;;;;;;;;;5044809;28;20046;-55
2021/12/24 14:24:13;;;;;;;5.75;3.22;;;;;;;;;;5044162;28;20053;-55
2021/12/24 14:26:47;;;;;;;7.63;2.25;;;;;;;;;;5044236;28;20065;-55
2021/12/24 14:29:23;;;;;;;7.45;2.60;;;;;;;;;;5044611;28;20568;-56
2021/12/24 14:32:12;;;;;;;7.75;2.78;;;;;;;;;;5043916;28;20053;-55
2021/12/24 14:34:38;;;;;;;;;;;;;;;;;;5037050;28;20472;-56
2021/12/24 14:37:06;;;;;;;6.53;1.40;;;;;;;;;;5043854;28;19921;-55
2021/12/24 14:39:43;;;;;;;6.32;1.98;;;;;;;;;;5044147;28;20049;-57
2021/12/24 14:42:14;;;;;;;3.08;1.30;;;;;;;;;;5043329;28;20049;-56
2021/12/24 14:44:40;;;;;;;7.57;1.70;;;;;;;;;;5043572;28;20045;-58
2021/12/24 14:47:06;;;;;;;5.07;1.70;;;;;;;;;;5110352;28;20142;-57
2021/12/24 14:49:33;;;;;;;6.43;1.50;;;;;;;;;;5127261;28;20059;-54
2021/12/24 14:52:15;;;;;;;4.50;1.40;;;;;;;;;;5108154;28;20071;-55
2021/12/24 14:55:00;;;;;;;4.15;1.20;;;;;;;;;;5126976;28;20176;-56
2021/12/24 14:57:26;;;;;;;2.42;1.15;;;;;;;;;;5126872;28;20058;-55
2021/12/24 14:59:52;;;;;;;6.57;1.20;;;;;;;;;;5126628;28;20050;-57
2021/12/24 15:02:18;;;;;;;5.32;1.20;;;;;;;;;;5126918;28;20043;-57
2021/12/24 15:04:44;;;;;;;7.25;2.00;;;;;;;;;;5126806;28;20047;-58
2021/12/24 15:07:11;;;;;;;7.40;1.25;;;;;;;;;;5126300;28;20046;-55
2021/12/24 15:09:39;;;;;;;5.05;1.40;;;;;;;;;;5126687;28;20043;-57
2021/12/24 15:12:22;;;;;;;7.88;1.92;;;;;;;;;;5126482;28;20055;-57
2021/12/24 15:14:48;;;;;;;16.08;6.70;;;;;;;;;;5126362;28;20101;-58
2021/12/24 15:17:14;;;;;;;9.38;2.65;;;;;;;;;;5126715;28;20083;-56
2021/12/24 15:19:40;;;;;;;1.65;1.00;;;;;;;;;;5126570;28;20047;-56
2021/12/24 15:22:06;;;;;;;4.78;1.55;;;;;;;;;;5125960;28;20043;-56
2021/12/24 15:24:33;;;;;;;4.30;1.60;;;;;;;;;;5126420;28;20185;-56
2021/12/24 15:26:59;;;;;;;4.78;1.73;;;;;;;;;;5125172;28;20047;-54
2021/12/24 15:29:25;;;;;;;4.15;1.15;;;;;;;;;;5126705;28;20069;-57
2021/12/24 15:31:51;;;;;;;9.75;1.50;;;;;;;;;;5108043;28;20121;-52
2021/12/24 15:34:17;;;;;;;9.05;1.90;;;;;;;;;;5126100;28;20150;-55
2021/12/24 15:36:43;;;;;;;10.57;1.83;;;;;;;;;;5145193;27;20058;-54
2021/12/24 15:39:09;;;;;;;9.27;2.70;;;;;;;;;;5146808;27;20070;-56
2021/12/24 15:41:35;;;;;;;20.50;3.10;;;;;;;;;;5147032;27;20114;-55
2021/12/24 15:44:02;;;;;;;9.00;3.17;;;;;;;;;;5146670;27;20039;-56
2021/12/24 15:46:28;;;;;;;14.38;3.17;;;;;;;;;;5146292;27;20047;-54
2021/12/24 15:48:54;;;;;;;5.30;2.50;;;;;;;;;;5146499;27;20226;-55
2021/12/24 15:51:21;;;;;;;14.07;4.30;;;;;;;;;;5145906;27;20118;-55
2021/12/24 15:53:47;;;;;;;11.23;3.95;;;;;;;;;;5145561;27;20039;-54
2021/12/24 15:56:13;;;;;;;13.25;5.30;;;;;;;;;;5146293;27;20573;-53
2021/12/24 15:58:41;;;;;;;19.42;6.75;;;;;;;;;;5128255;27;20071;-54
2021/12/24 16:01:08;;;;;;;16.10;6.72;;;;;;;;;;5146198;27;20091;-55
2021/12/24 16:03:35;;;;;;;19.83;8.27;;;;;;;;;;5146203;27;20039;-56
2021/12/24 16:06:01;;;;;;;25.55;10.70;;;;;;;;;;5145922;27;20047;-55
2021/12/24 16:08:28;;;;;;;15.77;7.63;;;;;;;;;;5127988;27;20099;-54
2021/12/24 16:10:54;;;;;;;41.42;14.55;;;;;;;;;;5146142;27;20122;-54
2021/12/24 16:13:21;;;;;;;25.25;10.10;;;;;;;;;;5145900;27;20039;-54
2021/12/24 16:15:50;;;;;;;22.77;7.68;;;;;;;;;;5145783;27;20054;-55
2021/12/24 16:18:17;;;;;;;18.50;7.78;;;;;;;;;;5145743;27;20043;-55
2021/12/24 16:20:43;;;;;;;21.75;10.82;;;;;;;;;;5145797;27;20055;-54
2021/12/24 16:23:10;;;;;;;27.05;10.73;;;;;;;;;;5146160;27;20054;-54
2021/12/24 16:25:36;;;;;;;13.32;6.30;;;;;;;;;;5145573;27;20066;-55
2021/12/24 16:28:03;;;;;;;32.15;15.65;;;;;;;;;;5146108;27;20035;-55
2021/12/24 16:30:29;;;;;;;32.05;11.48;;;;;;;;;;5127277;27;20047;-57
2021/12/24 16:32:55;;;;;;;25.90;11.93;;;;;;;;;;5146093;27;20138;-54